KLNR

Tri-County Regional Airport

Lone Rock, Wisconsin, USA
METAR KLNR 212256Z AUTO 32007KT 10SM FEW029 SCT037 BKN095 21/17 A3003 RMK AO2 SLP162 T02110167
Observed Flight Rules
Aug-21 @ 22:56 UTC (49 minutes ago) Visual Flight Rules
Wind Visibility Clouds
320° at 7 knots 10 miles
  • Few at 2,900' AGL
  • Scattered at 3,700' AGL
  • Broken at 9,500' AGL
Temperatures Readings
Current 21°C / 70°F
Dewpoint 17°C / 63°F
Humidity 78%
Altimeter 30.03" Hg
Pressure 1016.2 hPa
Elevation 217
METAR KLNR 212256Z AUTO 32007KT 10SM FEW029 SCT037 BKN095 21/17 A3003 RMK AO2 SLP162 T02110167
Observed Flight Rules
Aug-21 @ 22:56 UTC
(49 minutes ago)
VFR
Wind Visibility
320° at 7 knots 10 miles
Clouds
  • Few at 2,900' AGL
  • Scattered at 3,700' AGL
  • Broken at 9,500' AGL
Temperature Dewpoint
21°C / 70°F 17°C / 63°F
Humidity Altimeter Pressure
78% 30.03" Hg 1016.2 hPa